createdAt,value
2018-12-15T00:00:39.719Z,22.03
2018-12-15T00:03:07.921Z,21.17
2018-12-15T00:05:36.196Z,19.63
2018-12-15T00:08:04.368Z,20.47
2018-12-15T00:10:32.554Z,20.10
2018-12-15T00:13:00.662Z,19.10
2018-12-15T00:15:28.834Z,19.33
2018-12-15T00:17:57.064Z,19.90
2018-12-15T00:20:25.223Z,19.10
2018-12-15T00:22:53.347Z,19.97
2018-12-15T00:25:21.520Z,19.40
2018-12-15T00:27:49.700Z,20.43
2018-12-15T00:30:17.837Z,19.67
2018-12-15T00:32:46.012Z,19.00
2018-12-15T00:35:14.137Z,18.93
2018-12-15T00:37:42.330Z,19.90
2018-12-15T00:40:10.548Z,18.80
2018-12-15T00:42:38.676Z,19.87
2018-12-15T00:45:06.965Z,18.97
2018-12-15T00:47:35.087Z,19.00
2018-12-15T00:50:03.487Z,18.90
2018-12-15T00:52:31.744Z,20.43
2018-12-15T00:54:59.989Z,19.70
2018-12-15T00:57:28.119Z,21.00
2018-12-15T00:59:56.348Z,19.03
2018-12-15T01:02:24.559Z,19.07
2018-12-15T01:04:52.689Z,20.30
2018-12-15T01:07:20.832Z,19.80
2018-12-15T01:09:49.000Z,20.83
2018-12-15T01:12:17.170Z,21.10
2018-12-15T01:14:46.487Z,19.90
2018-12-15T01:17:20.330Z,19.87
2018-12-15T01:19:44.794Z,21.27
2018-12-15T01:22:13.011Z,21.07
2018-12-15T01:24:41.208Z,19.13
2018-12-15T01:27:09.365Z,20.97
2018-12-15T01:29:37.504Z,19.87
2018-12-15T01:32:05.633Z,21.60
2018-12-15T01:34:33.800Z,21.20
2018-12-15T01:37:01.950Z,20.37
2018-12-15T01:39:30.095Z,20.90
2018-12-15T01:41:58.275Z,20.57
2018-12-15T01:44:26.397Z,19.60
2018-12-15T01:46:54.541Z,21.00
2018-12-15T01:49:22.685Z,20.33
2018-12-15T01:51:50.817Z,20.63
2018-12-15T01:54:19.017Z,20.60
2018-12-15T01:56:47.164Z,20.00
2018-12-15T01:59:15.318Z,19.97
2018-12-15T02:01:43.424Z,20.83
2018-12-15T02:04:11.534Z,21.17
2018-12-15T02:06:39.711Z,20.63
2018-12-15T02:09:07.852Z,21.23
2018-12-15T02:11:35.978Z,20.93
2018-12-15T02:14:04.138Z,21.13
2018-12-15T02:16:32.837Z,21.70
2018-12-15T02:19:00.928Z,21.47
2018-12-15T02:21:29.130Z,21.23
2018-12-15T02:23:57.240Z,21.13
2018-12-15T02:26:25.380Z,22.77
2018-12-15T02:28:53.504Z,20.73
2018-12-15T02:31:23.628Z,21.53
2018-12-15T02:33:51.797Z,23.17
2018-12-15T02:36:20.024Z,22.97
2018-12-15T02:38:48.194Z,22.67
2018-12-15T02:41:16.443Z,21.90
2018-12-15T02:43:44.580Z,21.80
2018-12-15T02:46:12.770Z,22.40
2018-12-15T02:48:40.904Z,23.73
2018-12-15T02:51:09.049Z,22.87
2018-12-15T02:53:37.272Z,22.10
2018-12-15T02:56:05.395Z,23.97
2018-12-15T02:58:33.539Z,23.77
2018-12-15T03:01:01.661Z,24.57
2018-12-15T03:03:29.815Z,23.83
2018-12-15T03:05:57.968Z,23.17
2018-12-15T03:08:26.178Z,23.47
2018-12-15T03:10:54.383Z,24.50
2018-12-15T03:13:22.529Z,25.20
2018-12-15T03:15:50.659Z,26.43
2018-12-15T03:18:18.880Z,24.53
2018-12-15T03:21:00.551Z,25.13
2018-12-15T03:23:28.815Z,25.50
2018-12-15T03:25:57.508Z,24.53
2018-12-15T03:28:25.623Z,25.30
2018-12-15T03:30:53.756Z,23.23
2018-12-15T03:33:21.904Z,24.27
2018-12-15T03:35:50.117Z,25.23
2018-12-15T03:38:18.245Z,24.43
2018-12-15T03:40:46.395Z,25.57
2018-12-15T03:43:14.571Z,24.20
2018-12-15T03:45:42.703Z,26.03
2018-12-15T03:48:10.807Z,26.80
2018-12-15T03:50:38.923Z,25.27
2018-12-15T03:53:07.125Z,26.77
2018-12-15T03:55:35.300Z,25.90
2018-12-15T03:58:03.440Z,26.60
2018-12-15T04:00:31.619Z,26.57
2018-12-15T04:02:59.766Z,26.47
2018-12-15T04:05:27.955Z,27.43
2018-12-15T04:07:56.250Z,27.17
2018-12-15T04:10:24.463Z,27.13
2018-12-15T04:12:52.702Z,26.30
2018-12-15T04:15:20.969Z,27.57
2018-12-15T04:17:49.178Z,26.00
2018-12-15T04:20:17.388Z,24.77
2018-12-15T04:22:45.554Z,25.10
2018-12-15T04:25:13.713Z,26.40
2018-12-15T04:27:41.875Z,25.70
2018-12-15T04:30:10.169Z,25.70
2018-12-15T04:32:44.958Z,26.07
2018-12-15T04:35:08.516Z,23.47
2018-12-15T04:37:36.666Z,25.87
2018-12-15T04:40:07.261Z,24.63
2018-12-15T04:42:35.393Z,24.73
2018-12-15T04:45:03.908Z,25.37
2018-12-15T04:47:32.040Z,23.90
2018-12-15T04:50:00.186Z,24.90
2018-12-15T04:52:28.344Z,25.83
2018-12-15T04:54:56.538Z,23.63
2018-12-15T04:57:25.423Z,25.40
2018-12-15T04:59:53.713Z,23.37
2018-12-15T05:02:21.808Z,24.50
2018-12-15T05:04:50.019Z,22.17
2018-12-15T05:07:18.108Z,23.97
2018-12-15T05:09:46.265Z,23.53
2018-12-15T05:12:14.404Z,23.90
2018-12-15T05:14:42.713Z,23.53
2018-12-15T05:17:10.865Z,23.93
2018-12-15T05:19:39.129Z,22.17
2018-12-15T05:22:07.262Z,22.73
2018-12-15T05:24:35.413Z,23.07
2018-12-15T05:27:04.171Z,22.13
2018-12-15T05:29:33.536Z,22.90
2018-12-15T05:32:02.188Z,22.70
2018-12-15T05:34:30.353Z,22.10
2018-12-15T05:36:58.533Z,22.67
2018-12-15T05:39:26.629Z,21.77
2018-12-15T05:41:54.747Z,23.13
2018-12-15T05:44:22.990Z,21.03
2018-12-15T05:46:51.132Z,22.03
2018-12-15T05:49:19.286Z,20.80
2018-12-15T05:51:47.480Z,20.27
2018-12-15T05:54:15.673Z,19.40
2018-12-15T05:56:43.906Z,19.90
2018-12-15T05:59:12.088Z,19.40
2018-12-15T06:01:40.271Z,20.30
2018-12-15T06:04:08.460Z,19.23
2018-12-15T06:06:36.634Z,18.67
2018-12-15T06:09:06.214Z,19.07
2018-12-15T06:11:34.426Z,18.47
2018-12-15T06:14:04.149Z,16.83
2018-12-15T06:16:32.525Z,17.50
2018-12-15T06:19:00.615Z,18.10
2018-12-15T06:21:28.745Z,17.40
2018-12-15T06:23:56.850Z,17.57
2018-12-15T06:26:25.015Z,17.30
2018-12-15T06:28:53.153Z,16.37
2018-12-15T06:31:21.335Z,17.70
2018-12-15T06:33:49.507Z,16.90
2018-12-15T06:36:19.265Z,17.17
2018-12-15T06:38:47.425Z,15.97
2018-12-15T06:41:15.547Z,15.97
2018-12-15T06:43:43.849Z,16.07
2018-12-15T06:46:12.169Z,16.97
2018-12-15T06:48:40.386Z,16.20
2018-12-15T06:51:08.651Z,16.00
2018-12-15T06:53:37.390Z,15.60
2018-12-15T06:56:06.677Z,14.90
2018-12-15T06:58:34.839Z,15.40
2018-12-15T07:01:05.941Z,15.30
2018-12-15T07:03:34.657Z,15.70
2018-12-15T07:06:02.843Z,15.57
2018-12-15T07:08:30.951Z,15.70
2018-12-15T07:10:59.105Z,15.77
2018-12-15T07:13:27.321Z,15.53
2018-12-15T07:15:56.652Z,14.67
2018-12-15T07:18:24.867Z,20.12
2018-12-15T07:20:53.087Z,16.43
2018-12-15T07:23:21.279Z,15.60
2018-12-15T07:25:49.827Z,14.57
2018-12-15T07:28:18.005Z,15.10
2018-12-15T07:30:46.275Z,14.70
2018-12-15T07:33:14.449Z,14.10
2018-12-15T07:35:42.732Z,14.70
2018-12-15T07:38:10.892Z,14.93
2018-12-15T07:40:39.448Z,14.20
2018-12-15T07:43:07.592Z,14.63
2018-12-15T07:45:36.689Z,14.40
2018-12-15T07:48:04.882Z,15.30
2018-12-15T07:50:33.187Z,14.60
2018-12-15T07:53:01.377Z,13.93
2018-12-15T07:55:29.490Z,14.70
2018-12-15T07:57:57.670Z,14.33
2018-12-15T08:00:25.864Z,15.33
2018-12-15T08:02:54.089Z,14.93
2018-12-15T08:05:22.309Z,15.27
2018-12-15T08:07:50.491Z,15.33
2018-12-15T08:10:22.582Z,14.97
2018-12-15T08:12:59.355Z,15.20
2018-12-15T08:15:28.078Z,15.50
2018-12-15T08:17:56.207Z,14.87
2018-12-15T08:20:24.464Z,15.83
2018-12-15T08:22:52.557Z,15.40
2018-12-15T08:25:21.312Z,15.03
2018-12-15T08:27:49.518Z,15.90
2018-12-15T08:30:18.092Z,14.40
2018-12-15T08:32:46.312Z,16.43
2018-12-15T08:35:14.530Z,14.70
2018-12-15T08:37:42.690Z,14.83
2018-12-15T08:40:12.704Z,15.53
2018-12-15T08:42:40.885Z,14.67
2018-12-15T08:45:09.148Z,13.23
2018-12-15T08:47:37.672Z,15.00
2018-12-15T08:50:06.260Z,15.50
2018-12-15T08:52:34.579Z,14.90
2018-12-15T08:55:02.988Z,14.87
2018-12-15T08:57:31.619Z,15.20
2018-12-15T08:59:59.760Z,14.57
2018-12-15T09:02:27.988Z,15.33
2018-12-15T09:04:56.080Z,15.70
2018-12-15T09:07:24.734Z,14.43
2018-12-15T09:09:52.950Z,15.10
2018-12-15T09:12:21.144Z,15.87
2018-12-15T09:14:49.474Z,15.10
2018-12-15T09:17:17.802Z,15.60
2018-12-15T09:19:46.000Z,15.63
2018-12-15T09:22:14.274Z,14.90
2018-12-15T09:24:42.495Z,15.60
2018-12-15T09:27:10.734Z,15.67
2018-12-15T09:29:39.819Z,15.27
2018-12-15T09:32:07.933Z,15.07
2018-12-15T09:34:36.104Z,15.07
2018-12-15T09:37:04.317Z,15.63
2018-12-15T09:39:32.681Z,15.30
2018-12-15T09:42:00.965Z,15.57
2018-12-15T09:44:29.240Z,14.73
2018-12-15T09:46:57.386Z,14.50
2018-12-15T09:49:25.589Z,14.90
2018-12-15T09:51:53.784Z,16.17
2018-12-15T09:54:22.137Z,15.60
2018-12-15T09:56:50.970Z,14.83
2018-12-15T09:59:19.100Z,15.27
2018-12-15T10:01:47.308Z,14.10
2018-12-15T10:04:15.466Z,15.33
2018-12-15T10:06:43.659Z,15.00
2018-12-15T10:09:11.860Z,15.00
2018-12-15T10:11:39.970Z,15.67
2018-12-15T10:14:08.134Z,14.60
2018-12-15T10:16:36.333Z,15.40
2018-12-15T10:19:04.660Z,16.17
2018-12-15T10:21:33.636Z,16.37
2018-12-15T10:24:01.854Z,14.83
2018-12-15T10:26:30.050Z,15.00
2018-12-15T10:28:58.174Z,15.60
2018-12-15T10:31:32.126Z,14.03
2018-12-15T10:34:00.326Z,14.80
2018-12-15T10:36:29.395Z,14.50
2018-12-15T10:38:57.563Z,15.67
2018-12-15T10:41:26.670Z,15.47
2018-12-15T10:43:54.917Z,15.30
2018-12-15T10:46:24.461Z,16.43
2018-12-15T10:48:52.767Z,15.80
2018-12-15T10:51:20.924Z,15.93
2018-12-15T10:53:49.151Z,15.23
2018-12-15T10:56:17.319Z,15.50
2018-12-15T10:58:45.519Z,15.47
2018-12-15T11:01:19.495Z,16.27
2018-12-15T11:03:47.680Z,16.93
2018-12-15T11:06:15.902Z,15.07
2018-12-15T11:08:44.843Z,15.70
2018-12-15T11:11:13.229Z,16.00
2018-12-15T11:13:41.421Z,16.40
2018-12-15T11:16:09.698Z,14.47
2018-12-15T11:18:37.956Z,15.57
2018-12-15T11:21:06.137Z,16.53
2018-12-15T11:23:34.428Z,15.90
2018-12-15T11:26:02.714Z,16.93
2018-12-15T11:28:30.950Z,15.17
2018-12-15T11:30:59.144Z,15.90
2018-12-15T11:33:27.367Z,15.43
2018-12-15T11:35:55.566Z,15.27
2018-12-15T11:38:23.812Z,17.77
2018-12-15T11:40:52.052Z,14.87
2018-12-15T11:43:20.264Z,16.47
2018-12-15T11:45:48.576Z,14.80
2018-12-15T11:48:16.774Z,13.80
2018-12-15T11:50:44.949Z,16.27
2018-12-15T11:53:13.195Z,15.20
2018-12-15T11:55:48.040Z,16.10
2018-12-15T11:58:16.783Z,15.67
2018-12-15T12:00:45.096Z,15.70
2018-12-15T12:03:13.287Z,15.53
2018-12-15T12:05:41.477Z,16.07
2018-12-15T12:08:09.716Z,15.93
2018-12-15T12:10:38.085Z,14.53
2018-12-15T12:13:06.469Z,15.77
2018-12-15T12:15:34.735Z,16.00
2018-12-15T12:18:03.651Z,16.73
2018-12-15T12:20:31.815Z,15.03
2018-12-15T12:23:00.018Z,16.50
2018-12-15T12:25:28.233Z,15.93
2018-12-15T12:27:56.520Z,15.37
2018-12-15T12:30:24.718Z,16.43
2018-12-15T12:32:52.913Z,17.10
2018-12-15T12:35:21.061Z,15.50
2018-12-15T12:37:49.373Z,16.50
2018-12-15T12:40:17.565Z,16.77
2018-12-15T12:42:45.807Z,15.37
2018-12-15T12:45:13.976Z,14.47
2018-12-15T12:47:42.223Z,14.93
2018-12-15T12:50:10.420Z,16.00
2018-12-15T12:52:38.589Z,16.23
2018-12-15T12:55:08.989Z,16.40
2018-12-15T12:57:37.167Z,17.13
2018-12-15T13:00:06.707Z,17.67
2018-12-15T13:02:34.954Z,15.77
2018-12-15T13:05:03.685Z,16.40
2018-12-15T13:07:31.912Z,16.37
2018-12-15T13:10:00.340Z,16.10
2018-12-15T13:12:28.636Z,15.83
2018-12-15T13:14:56.768Z,17.00
2018-12-15T13:17:26.246Z,15.97
2018-12-15T13:19:54.430Z,15.67
2018-12-15T13:22:23.134Z,16.10
2018-12-15T13:24:51.646Z,18.23
2018-12-15T13:27:19.905Z,17.00
2018-12-15T13:29:48.058Z,16.00
2018-12-15T13:32:16.269Z,18.00
2018-12-15T13:34:45.103Z,16.13
2018-12-15T13:37:13.370Z,16.47
2018-12-15T13:39:41.755Z,17.00
2018-12-15T13:42:10.131Z,16.07
2018-12-15T13:44:38.329Z,16.47
2018-12-15T13:47:06.617Z,17.53
2018-12-15T13:49:34.877Z,17.43
2018-12-15T13:52:03.177Z,17.93
2018-12-15T13:54:31.361Z,17.77
2018-12-15T13:56:59.573Z,17.50
2018-12-15T13:59:27.749Z,17.87
2018-12-15T14:01:55.932Z,17.83
2018-12-15T14:04:24.128Z,17.03
2018-12-15T14:06:52.292Z,18.20
2018-12-15T14:09:20.594Z,17.17
2018-12-15T14:11:48.769Z,17.97
2018-12-15T14:14:16.937Z,17.50
2018-12-15T14:16:45.141Z,18.93
2018-12-15T14:19:13.240Z,17.77
2018-12-15T14:21:41.410Z,17.00
2018-12-15T14:24:09.611Z,18.07
2018-12-15T14:26:37.741Z,17.33
2018-12-15T14:29:05.900Z,18.23
2018-12-15T14:31:36.901Z,17.70
2018-12-15T14:34:05.339Z,20.20
2018-12-15T14:36:33.479Z,16.77
2018-12-15T14:39:01.699Z,16.50
2018-12-15T14:41:29.885Z,18.87
2018-12-15T14:43:58.073Z,19.10
2018-12-15T14:46:26.220Z,18.23
2018-12-15T14:48:54.387Z,18.43
2018-12-15T14:51:22.695Z,17.83
2018-12-15T14:53:50.916Z,17.60
2018-12-15T14:56:19.248Z,17.73
2018-12-15T14:58:47.496Z,16.93
2018-12-15T15:01:15.705Z,17.83
2018-12-15T15:03:44.017Z,17.57
2018-12-15T15:06:12.220Z,18.73
2018-12-15T15:08:40.452Z,19.30
2018-12-15T15:11:08.630Z,18.17
2018-12-15T15:13:37.532Z,19.00
2018-12-15T15:16:05.711Z,17.97
2018-12-15T15:18:34.150Z,19.40
2018-12-15T15:21:02.610Z,18.77
2018-12-15T15:23:31.005Z,18.53
2018-12-15T15:25:59.703Z,18.87
2018-12-15T15:28:28.315Z,18.83
2018-12-15T15:30:56.508Z,19.10
2018-12-15T15:33:24.762Z,18.00
2018-12-15T15:35:53.136Z,18.70
2018-12-15T15:38:22.050Z,17.40
2018-12-15T15:40:50.196Z,19.10
2018-12-15T15:43:18.346Z,18.87
2018-12-15T15:45:46.516Z,19.33
2018-12-15T15:48:14.691Z,19.10
2018-12-15T15:50:43.533Z,18.37
2018-12-15T15:53:12.780Z,19.30
2018-12-15T15:55:41.824Z,18.67
2018-12-15T15:58:10.126Z,17.70
2018-12-15T16:00:38.280Z,18.57
2018-12-15T16:03:06.428Z,18.87
2018-12-15T16:05:34.624Z,18.20
2018-12-15T16:08:02.845Z,17.20
2018-12-15T16:10:31.209Z,18.27
2018-12-15T16:12:59.351Z,18.07
2018-12-15T16:15:27.574Z,18.30
2018-12-15T16:17:55.796Z,19.03
2018-12-15T16:20:24.243Z,18.53
2018-12-15T16:22:52.416Z,17.27
2018-12-15T16:25:20.678Z,19.00
2018-12-15T16:27:48.811Z,18.23
2018-12-15T16:30:17.001Z,20.10
2018-12-15T16:32:45.226Z,17.70
2018-12-15T16:35:14.035Z,18.70
2018-12-15T16:37:42.272Z,17.87
2018-12-15T16:40:10.815Z,17.80
2018-12-15T16:42:38.999Z,18.43
2018-12-15T16:45:10.255Z,18.70
2018-12-15T16:47:38.404Z,17.83
2018-12-15T16:50:11.341Z,18.37
2018-12-15T16:52:40.076Z,17.80
2018-12-15T16:55:09.011Z,19.30
2018-12-15T16:57:37.343Z,18.13
2018-12-15T17:00:11.573Z,18.23
2018-12-15T17:02:39.745Z,17.47
2018-12-15T17:05:08.367Z,20.27
2018-12-15T17:07:36.684Z,19.27
2018-12-15T17:10:07.623Z,18.07
2018-12-15T17:12:36.000Z,19.03
2018-12-15T17:15:07.082Z,19.33
2018-12-15T17:17:35.319Z,19.13
2018-12-15T17:20:05.499Z,19.10
2018-12-15T17:22:33.742Z,19.00
2018-12-15T17:25:02.049Z,19.83
2018-12-15T17:27:30.843Z,18.70
2018-12-15T17:29:59.148Z,19.43
2018-12-15T17:32:28.196Z,19.17
2018-12-15T17:34:56.876Z,18.73
2018-12-15T17:37:25.922Z,19.07
2018-12-15T17:39:54.170Z,20.37
2018-12-15T17:42:22.374Z,19.47
2018-12-15T17:44:50.654Z,19.03
2018-12-15T17:47:18.966Z,20.03
2018-12-15T17:49:47.229Z,19.00
2018-12-15T17:52:15.614Z,18.47
2018-12-15T17:54:43.922Z,18.03
2018-12-15T17:57:12.139Z,18.13
2018-12-15T17:59:40.507Z,19.17
2018-12-15T18:02:08.783Z,20.23
2018-12-15T18:04:37.017Z,19.47
2018-12-15T18:07:05.374Z,17.90
2018-12-15T18:09:33.608Z,20.73
2018-12-15T18:12:01.985Z,18.93
2018-12-15T18:14:30.204Z,20.27
2018-12-15T18:16:58.532Z,18.73
2018-12-15T18:19:26.911Z,18.47
2018-12-15T18:21:55.079Z,19.70
2018-12-15T18:24:23.224Z,19.47
2018-12-15T18:26:51.471Z,19.27
2018-12-15T18:29:19.633Z,18.00
2018-12-15T18:31:47.798Z,18.83
2018-12-15T18:34:16.018Z,19.47
2018-12-15T18:36:44.195Z,19.70
2018-12-15T18:39:12.475Z,18.63
2018-12-15T18:41:40.603Z,19.47
2018-12-15T18:44:08.831Z,20.00
2018-12-15T18:46:37.059Z,18.40
2018-12-15T18:49:05.501Z,19.53
2018-12-15T18:51:34.421Z,19.27
2018-12-15T18:54:02.767Z,19.67
2018-12-15T18:56:31.281Z,20.50
2018-12-15T18:59:00.185Z,19.90
2018-12-15T19:01:28.588Z,20.13
2018-12-15T19:03:56.810Z,20.10
2018-12-15T19:06:25.082Z,20.30
2018-12-15T19:08:53.288Z,18.93
2018-12-15T19:11:21.553Z,19.20
2018-12-15T19:13:49.743Z,20.43
2018-12-15T19:16:18.180Z,19.50
2018-12-15T19:18:46.465Z,19.10
2018-12-15T19:21:14.696Z,19.23
2018-12-15T19:23:42.921Z,20.03
2018-12-15T19:26:11.068Z,21.07
2018-12-15T19:28:39.293Z,20.37
2018-12-15T19:31:07.465Z,19.97
2018-12-15T19:33:35.718Z,19.67
2018-12-15T19:36:04.074Z,20.03
2018-12-15T19:38:33.235Z,20.67
2018-12-15T19:41:01.417Z,20.20
2018-12-15T19:43:29.631Z,20.30
2018-12-15T19:45:57.795Z,19.83
2018-12-15T19:48:26.007Z,20.20
2018-12-15T19:50:54.243Z,20.30
2018-12-15T19:53:22.487Z,19.20
2018-12-15T19:55:51.665Z,22.30
2018-12-15T19:58:19.859Z,19.83
2018-12-15T20:00:48.162Z,20.53
2018-12-15T20:03:17.622Z,20.47
2018-12-15T20:05:52.199Z,20.87
2018-12-15T20:08:21.480Z,20.43
2018-12-15T20:10:49.738Z,21.97
2018-12-15T20:13:17.942Z,22.07
2018-12-15T20:18:31.975Z,20.70
2018-12-15T20:21:00.281Z,19.83
2018-12-15T20:23:28.523Z,22.77
2018-12-15T20:25:56.875Z,22.13
2018-12-15T20:28:25.075Z,22.23
2018-12-15T20:30:56.445Z,20.70
2018-12-15T20:33:24.723Z,21.73
2018-12-15T20:35:53.079Z,21.00
2018-12-15T20:38:21.279Z,20.50
2018-12-15T20:40:49.600Z,21.97
2018-12-15T20:43:17.726Z,21.90
2018-12-15T20:45:46.015Z,21.53
2018-12-15T20:48:14.376Z,20.80
2018-12-15T20:50:42.596Z,22.77
2018-12-15T20:53:10.774Z,21.97
2018-12-15T20:55:39.042Z,20.57
2018-12-15T20:58:07.210Z,22.00
2018-12-15T21:00:35.649Z,22.13
2018-12-15T21:03:04.013Z,21.17
2018-12-15T21:05:36.768Z,21.47
2018-12-15T21:08:02.458Z,22.53
2018-12-15T21:10:30.723Z,20.77
2018-12-15T21:12:59.006Z,21.83
2018-12-15T21:15:33.815Z,21.87
2018-12-15T21:18:01.968Z,21.60
2018-12-15T21:20:30.202Z,21.07
2018-12-15T21:22:58.330Z,21.07
2018-12-15T21:25:26.499Z,19.57
2018-12-15T21:27:54.618Z,20.83
2018-12-15T21:30:22.756Z,20.70
2018-12-15T21:32:50.980Z,22.63
2018-12-15T21:35:19.156Z,23.97
2018-12-15T21:37:47.402Z,23.37
2018-12-15T21:40:15.640Z,20.60
2018-12-15T21:42:43.853Z,21.93
2018-12-15T21:45:11.981Z,22.57
2018-12-15T21:47:41.786Z,21.60
2018-12-15T21:50:10.843Z,22.87
2018-12-15T21:52:38.985Z,22.13
2018-12-15T21:55:07.443Z,22.17
2018-12-15T21:57:35.588Z,21.40
2018-12-15T22:00:04.628Z,21.17
2018-12-15T22:02:32.913Z,21.77
2018-12-15T22:05:01.147Z,21.83
2018-12-15T22:07:29.306Z,20.13
2018-12-15T22:09:57.486Z,20.93
2018-12-15T22:12:25.662Z,22.43
2018-12-15T22:14:53.781Z,21.17
2018-12-15T22:17:21.944Z,20.73
2018-12-15T22:19:50.027Z,21.37
2018-12-15T22:22:18.216Z,21.93
2018-12-15T22:24:46.918Z,20.60
2018-12-15T22:27:15.118Z,22.27
2018-12-15T22:29:43.300Z,20.43
2018-12-15T22:32:11.524Z,22.13
2018-12-15T22:34:39.701Z,22.27
2018-12-15T22:37:07.965Z,22.70
2018-12-15T22:39:36.118Z,21.03
2018-12-15T22:42:04.494Z,20.53
2018-12-15T22:44:32.685Z,20.67
2018-12-15T22:47:00.921Z,21.17
2018-12-15T22:49:29.119Z,20.70
2018-12-15T22:51:57.393Z,22.87
2018-12-15T22:54:25.531Z,23.07
2018-12-15T22:56:53.840Z,22.50
2018-12-15T22:59:23.075Z,21.83
2018-12-15T23:01:52.269Z,22.17
2018-12-15T23:04:20.449Z,22.67
2018-12-15T23:06:49.408Z,23.03
2018-12-15T23:09:18.741Z,21.43
2018-12-15T23:11:47.043Z,21.83
2018-12-15T23:14:15.160Z,22.20
2018-12-15T23:16:43.309Z,23.37
2018-12-15T23:19:11.440Z,22.53
2018-12-15T23:21:39.565Z,23.63
2018-12-15T23:24:07.681Z,22.73
2018-12-15T23:26:35.986Z,22.90
2018-12-15T23:29:04.252Z,22.73
2018-12-15T23:31:32.366Z,22.20
2018-12-15T23:34:00.812Z,22.20
2018-12-15T23:36:29.148Z,23.27
2018-12-15T23:38:57.553Z,25.03
2018-12-15T23:41:25.885Z,22.53
2018-12-15T23:43:54.058Z,22.87
2018-12-15T23:46:22.958Z,23.00
2018-12-15T23:48:51.129Z,23.47
2018-12-15T23:51:19.272Z,25.00
2018-12-15T23:53:47.442Z,23.03
2018-12-15T23:56:15.677Z,23.70
2018-12-15T23:58:43.851Z,23.67
